Terminal Aerodrome Forecast
Issued by NWS

Home | Current Version | Previous Version | Text Only | Print | Product List | Glossary Off
Versions: 1 2 3 4 5 6 7 8 9 10 11 12 13 14 15 16 17 18 19 20 21 22 23 24 25 26 27 28 29 30 31

000
FTUS43 KGRB 192326
TAFRHI
TAF
KRHI 192326Z 2000/2024 06009G15KT 3SM -FZDZ BR OVC017
      TEMPO 2000/2004 1SM -FZRASNPL BR BKN007
     FM200400 04008KT 4SM -FZDZSN BR OVC007
     FM200600 04005KT 4SM -FZDZSN BR OVC005
     FM201700 31006KT P6SM OVC010=

USA.gov is the U.S. government's official web portal to all federal, state and local government web resources and services.